Time;durP1;ratioP1;P1;durP2;ratioP2;P2;SDS_P1;SDS_P2;PMS_P1;PMS_P2;Temp;Humidity;BMP_temperature;BMP_pressure;BME280_temperature;BME280_humidity;BME280_pressure;Samples;Min_cycle;Max_cycle;Signal;HPM_P1;HPM_P2
2022/01/04 00:00:44;;;;;;;27.90;13.65;;;8.70;99.90;;;;;;5006742;28;20100;-70
2022/01/04 00:03:10;;;;;;;25.00;13.63;;;8.70;99.90;;;;;;5007803;28;20037;-71
2022/01/04 00:05:37;;;;;;;24.73;14.73;;;8.70;99.90;;;;;;5005669;28;20049;-71
2022/01/04 00:08:07;;;;;;;24.45;14.50;;;8.70;99.90;;;;;;5006850;28;20042;-71
2022/01/04 00:10:33;;;;;;;23.17;12.82;;;8.70;99.90;;;;;;5006157;28;20061;-71
2022/01/04 00:15:44;;;;;;;22.85;12.95;;;8.70;99.90;;;;;;4995428;28;20501;-71
2022/01/04 00:18:10;;;;;;;24.83;13.02;;;8.80;99.90;;;;;;5007821;28;20042;-71
2022/01/04 00:20:36;;;;;;;24.85;13.20;;;8.80;99.90;;;;;;5008115;28;20139;-71
2022/01/04 00:23:02;;;;;;;23.80;13.40;;;8.80;99.90;;;;;;5006756;28;20646;-71
2022/01/04 00:25:27;;;;;;;23.55;15.02;;;8.80;99.90;;;;;;5006674;28;20041;-71
2022/01/04 00:27:53;;;;;;;25.10;14.45;;;8.80;99.90;;;;;;5007336;28;20042;-71
2022/01/04 00:30:19;;;;;;;27.98;14.55;;;8.80;99.90;;;;;;5007808;28;20081;-71
2022/01/04 00:32:44;;;;;;;25.85;15.18;;;8.80;99.90;;;;;;5004949;28;20041;-71
2022/01/04 00:35:10;;;;;;;26.38;14.85;;;8.70;99.90;;;;;;5008084;28;20042;-71
2022/01/04 00:37:36;;;;;;;28.05;14.98;;;8.80;99.90;;;;;;5005140;28;20092;-71
2022/01/04 00:40:03;;;;;;;27.65;16.20;;;8.80;99.90;;;;;;5007337;28;20131;-71
2022/01/04 00:42:29;;;;;;;26.23;15.70;;;8.70;99.90;;;;;;5007310;28;20061;-71
2022/01/04 00:44:54;;;;;;;26.50;16.77;;;8.70;99.90;;;;;;5010550;28;20034;-71
2022/01/04 00:47:26;;;;;;;26.65;16.52;;;8.70;99.90;;;;;;5012300;28;20053;-70
2022/01/04 00:49:52;;;;;;;26.98;17.50;;;8.70;99.90;;;;;;5011677;28;20094;-71
2022/01/04 00:52:17;;;;;;;26.55;16.75;;;8.70;99.90;;;;;;5012024;28;20050;-71
2022/01/04 00:54:45;;;;;;;26.48;17.02;;;8.70;99.90;;;;;;5007628;28;20100;-71
2022/01/04 00:57:11;;;;;;;29.33;17.90;;;8.70;99.90;;;;;;5009211;28;20400;-71
2022/01/04 00:59:36;;;;;;;30.38;18.80;;;8.70;99.90;;;;;;5010631;28;20045;-72
2022/01/04 01:02:03;;;;;;;31.52;18.52;;;8.70;99.90;;;;;;5009742;28;20604;-71
2022/01/04 01:04:28;;;;;;;34.70;19.52;;;8.70;99.90;;;;;;5008691;28;20038;-70
2022/01/04 01:06:54;;;;;;;34.60;19.63;;;8.70;99.90;;;;;;5008748;28;20040;-71
2022/01/04 01:09:21;;;;;;;32.20;20.33;;;8.70;99.90;;;;;;5004927;28;20045;-70
2022/01/04 01:11:47;;;;;;;30.40;19.15;;;8.70;99.90;;;;;;5008523;28;20057;-71
2022/01/04 01:14:13;;;;;;;33.03;21.20;;;8.60;99.90;;;;;;5012249;28;20133;-70
2022/01/04 01:16:38;;;;;;;35.75;21.13;;;8.60;99.90;;;;;;5003881;28;20077;-71
2022/01/04 01:19:04;;;;;;;29.33;21.05;;;8.60;99.90;;;;;;5009426;28;20085;-71
2022/01/04 01:21:30;;;;;;;35.95;22.40;;;8.60;99.90;;;;;;5009013;28;20054;-70
2022/01/04 01:23:55;;;;;;;33.47;22.08;;;8.50;99.90;;;;;;5007295;28;20048;-72
2022/01/04 01:26:21;;;;;;;33.70;21.63;;;8.50;99.90;;;;;;5009107;28;20046;-71
2022/01/04 01:28:47;;;;;;;32.45;21.58;;;8.50;99.90;;;;;;5007782;28;20519;-72
2022/01/04 01:31:13;;;;;;;33.97;21.90;;;8.50;99.90;;;;;;5011089;28;20038;-71
2022/01/04 01:33:38;;;;;;;34.80;22.80;;;8.50;99.90;;;;;;5009746;28;20084;-71
2022/01/04 01:36:06;;;;;;;28.73;21.10;;;8.50;99.90;;;;;;5010239;28;20098;-71
2022/01/04 01:38:31;;;;;;;32.33;22.92;;;8.50;99.90;;;;;;5009452;28;20095;-71
2022/01/04 01:40:57;;;;;;;33.85;21.70;;;8.50;99.90;;;;;;5004148;28;20041;-71
2022/01/04 01:43:24;;;;;;;41.55;23.85;;;8.50;99.90;;;;;;5009053;28;20045;-71
2022/01/04 01:45:50;;;;;;;33.13;22.42;;;8.50;99.90;;;;;;5010658;28;20169;-71
2022/01/04 01:48:16;;;;;;;34.13;22.90;;;8.40;99.90;;;;;;5010000;28;20050;-71
2022/01/04 01:50:42;;;;;;;35.92;23.10;;;8.40;99.90;;;;;;5010001;28;20068;-71
2022/01/04 01:53:08;;;;;;;38.38;22.73;;;8.40;99.90;;;;;;5011484;28;20053;-71
2022/01/04 01:55:34;;;;;;;33.30;23.50;;;8.40;99.90;;;;;;5003759;28;20080;-71
2022/01/04 01:58:00;;;;;;;34.45;24.67;;;8.40;99.90;;;;;;5009261;28;20130;-71
2022/01/04 02:00:28;;;;;;;37.78;23.70;;;8.40;99.90;;;;;;5010532;28;20091;-70
2022/01/04 02:02:54;;;;;;;35.17;23.58;;;8.40;99.90;;;;;;5001155;28;20084;-70
2022/01/04 02:05:20;;;;;;;33.53;23.10;;;8.40;99.90;;;;;;5013777;28;20045;-72
2022/01/04 02:07:46;;;;;;;32.10;22.92;;;8.30;99.90;;;;;;5005472;28;20112;-71
2022/01/04 02:10:12;;;;;;;33.67;23.98;;;8.30;99.90;;;;;;5005999;28;20520;-71
2022/01/04 02:12:49;;;;;;;34.97;24.10;;;8.30;99.90;;;;;;5006106;28;20087;-71
2022/01/04 02:15:20;;;;;;;38.70;24.23;;;8.30;99.90;;;;;;5008912;28;20060;-70
2022/01/04 02:17:45;;;;;;;32.80;23.83;;;8.30;99.90;;;;;;5008624;28;20136;-71
2022/01/04 02:20:12;;;;;;;38.33;25.05;;;8.30;99.90;;;;;;5022608;28;20085;-71
2022/01/04 02:22:38;;;;;;;35.60;24.07;;;8.30;99.90;;;;;;5008256;28;20562;-71
2022/01/04 02:25:05;;;;;;;35.15;24.60;;;8.30;99.90;;;;;;5003436;28;20301;-71
2022/01/04 02:27:34;;;;;;;36.10;24.92;;;8.30;99.90;;;;;;4995894;28;20105;-72
2022/01/04 02:30:00;;;;;;;37.42;24.52;;;8.20;99.90;;;;;;5007067;28;20049;-71
2022/01/04 02:32:25;;;;;;;37.33;24.48;;;8.20;99.90;;;;;;5007653;28;20048;-70
2022/01/04 02:34:52;;;;;;;36.80;24.95;;;8.20;99.90;;;;;;5000510;28;20506;-71
2022/01/04 02:37:22;;;;;;;36.77;24.77;;;8.20;99.90;;;;;;5006865;28;20037;-71
2022/01/04 02:39:48;;;;;;;39.17;25.52;;;8.20;99.90;;;;;;5005317;28;20050;-71
2022/01/04 02:42:14;;;;;;;36.80;26.38;;;8.20;99.90;;;;;;4995808;28;20481;-71
2022/01/04 02:44:40;;;;;;;37.35;25.30;;;8.20;99.90;;;;;;5007441;28;20042;-71
2022/01/04 02:47:06;;;;;;;34.03;24.58;;;8.20;99.90;;;;;;5008063;28;20048;-71
2022/01/04 02:49:32;;;;;;;35.65;26.65;;;8.20;99.90;;;;;;5008143;28;20037;-71
2022/01/04 02:51:57;;;;;;;42.40;26.17;;;8.20;99.90;;;;;;5005284;28;20054;-71
2022/01/04 02:54:23;;;;;;;36.58;26.42;;;8.20;99.90;;;;;;5004929;28;20128;-70
2022/01/04 02:56:49;;;;;;;38.67;26.33;;;8.20;99.90;;;;;;5001417;28;20046;-71
2022/01/04 02:59:15;;;;;;;36.80;26.60;;;8.20;99.90;;;;;;5008061;28;20522;-71
2022/01/04 03:01:40;;;;;;;40.15;27.05;;;8.20;99.90;;;;;;5006448;28;20060;-71
2022/01/04 03:04:07;;;;;;;39.28;25.42;;;8.20;99.90;;;;;;5002531;28;20485;-71
2022/01/04 03:06:34;;;;;;;38.45;25.60;;;8.20;99.90;;;;;;4992458;28;20050;-71
2022/01/04 03:09:00;;;;;;;39.67;26.02;;;8.20;99.90;;;;;;5008278;28;20038;-70
2022/01/04 03:11:26;;;;;;;35.60;25.05;;;8.10;99.90;;;;;;5006941;28;20049;-71
2022/01/04 03:13:51;;;;;;;41.67;26.95;;;8.20;99.90;;;;;;5007460;28;20038;-71
2022/01/04 03:16:17;;;;;;;37.42;25.55;;;8.20;99.90;;;;;;5012916;28;20108;-71
2022/01/04 03:19:03;;;;;;;42.45;26.85;;;8.20;99.90;;;;;;5005717;28;20132;-71
2022/01/04 03:21:30;;;;;;;41.28;26.08;;;8.10;99.90;;;;;;5003940;28;20054;-71
2022/01/04 03:23:57;;;;;;;39.00;26.83;;;8.20;99.90;;;;;;5003555;28;20041;-70
2022/01/04 03:26:23;;;;;;;34.60;26.33;;;8.20;99.90;;;;;;5006140;28;20084;-71
2022/01/04 03:28:49;;;;;;;39.22;27.02;;;8.20;99.90;;;;;;5004945;28;20051;-71
2022/01/04 03:31:14;;;;;;;38.60;27.17;;;8.20;99.90;;;;;;5006654;28;20052;-71
2022/01/04 03:33:40;;;;;;;39.10;26.65;;;8.20;99.90;;;;;;5008086;28;20053;-71
2022/01/04 03:36:06;;;;;;;37.85;27.00;;;8.20;99.90;;;;;;5004436;28;20589;-71
2022/01/04 03:38:32;;;;;;;40.65;26.88;;;8.20;99.90;;;;;;5001179;28;20049;-70
2022/01/04 03:40:57;;;;;;;41.42;27.45;;;8.30;99.90;;;;;;5004220;28;20125;-71
2022/01/04 03:43:23;;;;;;;42.22;26.15;;;8.30;99.90;;;;;;5007902;28;20514;-71
2022/01/04 03:45:50;;;;;;;34.90;25.38;;;8.30;99.90;;;;;;5006652;28;20588;-71
2022/01/04 03:48:16;;;;;;;40.65;27.38;;;8.30;99.90;;;;;;5007247;28;20428;-71
2022/01/04 03:50:42;;;;;;;38.78;27.23;;;8.30;99.90;;;;;;5006044;28;20041;-71
2022/01/04 03:53:08;;;;;;;39.85;27.20;;;8.30;99.90;;;;;;5006967;28;20164;-71
2022/01/04 03:55:33;;;;;;;34.35;25.73;;;8.30;99.90;;;;;;5012886;28;20104;-71
2022/01/04 03:57:59;;;;;;;40.53;27.48;;;8.30;99.90;;;;;;5006767;28;20452;-71
2022/01/04 04:00:25;;;;;;;40.78;27.30;;;8.30;99.90;;;;;;5005420;28;20050;-71
2022/01/04 04:02:51;;;;;;;37.67;27.45;;;8.30;99.90;;;;;;5005071;28;20049;-71
2022/01/04 04:05:17;;;;;;;41.28;27.98;;;8.40;99.90;;;;;;5008372;28;20050;-70
2022/01/04 04:07:43;;;;;;;45.03;26.95;;;8.40;99.90;;;;;;5006567;28;20120;-71
2022/01/04 04:10:09;;;;;;;41.03;27.85;;;8.40;99.90;;;;;;5001517;28;20048;-71
2022/01/04 04:12:35;;;;;;;42.37;27.57;;;8.40;99.90;;;;;;5005357;28;20397;-71
2022/01/04 04:15:04;;;;;;;41.15;27.70;;;8.40;99.90;;;;;;5005774;28;20049;-72
2022/01/04 04:17:32;;;;;;;42.97;28.02;;;8.40;99.90;;;;;;5006204;28;20493;-71
2022/01/04 04:19:58;;;;;;;36.75;27.77;;;8.40;99.90;;;;;;5005963;28;20197;-70
2022/01/04 04:22:24;;;;;;;41.70;28.35;;;8.40;99.90;;;;;;5006768;28;20046;-71
2022/01/04 04:24:49;;;;;;;40.28;27.13;;;8.40;99.90;;;;;;5000762;28;20045;-71
2022/01/04 04:27:15;;;;;;;40.15;27.55;;;8.40;99.90;;;;;;5005997;28;20049;-71
2022/01/04 04:29:41;;;;;;;45.15;29.33;;;8.40;99.90;;;;;;5006595;28;20112;-71
2022/01/04 04:32:08;;;;;;;40.45;28.23;;;8.40;99.90;;;;;;5006613;28;20052;-70
2022/01/04 04:34:33;;;;;;;40.05;27.92;;;8.40;99.90;;;;;;5007027;28;20038;-71
2022/01/04 04:37:00;;;;;;;38.25;28.08;;;8.40;99.90;;;;;;5004642;28;20049;-71
2022/01/04 04:39:25;;;;;;;36.00;28.08;;;8.50;99.90;;;;;;5005885;28;20117;-71
2022/01/04 04:41:52;;;;;;;45.65;27.50;;;8.50;99.90;;;;;;5004431;28;20140;-71
2022/01/04 04:44:18;;;;;;;37.88;26.63;;;8.50;99.90;;;;;;5022336;28;20125;-71
2022/01/04 04:46:43;;;;;;;47.15;28.42;;;8.50;99.90;;;;;;5002943;28;20771;-71
2022/01/04 04:49:09;;;;;;;43.58;28.20;;;8.50;99.90;;;;;;5005745;28;20038;-71
2022/01/04 04:51:35;;;;;;;39.75;28.23;;;8.50;99.90;;;;;;5003389;28;20049;-71
2022/01/04 04:54:00;;;;;;;37.97;27.98;;;8.50;99.90;;;;;;5005611;28;20041;-71
2022/01/04 04:56:26;;;;;;;42.10;28.08;;;8.50;99.90;;;;;;5005196;28;20081;-71
2022/01/04 04:58:52;;;;;;;40.13;27.10;;;8.40;99.90;;;;;;5007843;28;20050;-72
2022/01/04 05:01:17;;;;;;;39.58;27.75;;;8.40;99.90;;;;;;5002306;28;20081;-71
2022/01/04 05:03:43;;;;;;;40.50;28.10;;;8.50;99.90;;;;;;5004421;28;20050;-70
2022/01/04 05:06:08;;;;;;;44.70;28.45;;;8.50;99.90;;;;;;5005624;28;20049;-71
2022/01/04 05:08:34;;;;;;;37.53;26.45;;;8.50;99.90;;;;;;5005728;28;20145;-71
2022/01/04 05:11:02;;;;;;;36.35;26.70;;;8.50;99.90;;;;;;5005033;28;20073;-71
2022/01/04 05:13:28;;;;;;;40.60;27.75;;;8.50;99.90;;;;;;5004361;28;20427;-71
2022/01/04 05:15:54;;;;;;;35.75;27.13;;;8.40;99.90;;;;;;5006150;28;20049;-71
2022/01/04 05:18:20;;;;;;;33.17;26.63;;;8.40;99.90;;;;;;5001236;28;20105;-72
2022/01/04 05:20:45;;;;;;;39.35;27.58;;;8.40;99.90;;;;;;5002864;28;20113;-71
2022/01/04 05:23:11;;;;;;;37.60;26.90;;;8.40;99.90;;;;;;5006663;28;20046;-71
2022/01/04 05:25:36;;;;;;;38.92;26.05;;;8.40;99.90;;;;;;5004922;28;20391;-71
2022/01/04 05:28:02;;;;;;;36.05;25.75;;;8.40;99.90;;;;;;5001728;28;20050;-71
2022/01/04 05:30:28;;;;;;;36.97;25.70;;;8.40;99.90;;;;;;5003072;28;20121;-71
2022/01/04 05:32:54;;;;;;;33.17;25.25;;;8.40;99.90;;;;;;5010978;28;20046;-71
2022/01/04 05:35:19;;;;;;;34.55;24.77;;;8.40;99.90;;;;;;5008908;28;20500;-71
2022/01/04 05:37:45;;;;;;;25.33;18.13;;;8.40;99.90;;;;;;5006906;28;20481;-71
2022/01/04 05:40:11;;;;;;;26.50;18.08;;;8.40;99.90;;;;;;5011096;28;20409;-71
2022/01/04 05:42:36;;;;;;;30.73;21.60;;;8.40;99.90;;;;;;5006427;28;20048;-72
2022/01/04 05:45:03;;;;;;;38.20;26.77;;;8.40;99.90;;;;;;5010241;28;20088;-72
2022/01/04 05:47:28;;;;;;;37.95;27.17;;;8.40;99.90;;;;;;5015567;28;20046;-71
2022/01/04 05:49:54;;;;;;;39.47;28.20;;;8.40;99.90;;;;;;5007145;28;20044;-71
2022/01/04 05:52:19;;;;;;;47.50;28.02;;;8.40;99.90;;;;;;5006228;28;20067;-71
2022/01/04 05:54:47;;;;;;;38.53;28.17;;;8.40;99.90;;;;;;5009095;28;20041;-71
2022/01/04 05:57:13;;;;;;;44.15;28.27;;;8.40;99.90;;;;;;5006664;28;20042;-71
2022/01/04 05:59:39;;;;;;;44.78;29.02;;;8.40;99.90;;;;;;5009444;28;20034;-71
2022/01/04 06:02:04;;;;;;;42.28;29.58;;;8.40;99.90;;;;;;5009269;28;20143;-71
2022/01/04 06:04:30;;;;;;;38.90;28.73;;;8.40;99.90;;;;;;5008755;28;20624;-72
2022/01/04 06:06:55;;;;;;;40.60;28.95;;;8.40;99.90;;;;;;5008244;28;20567;-71
2022/01/04 06:09:26;;;;;;;39.58;29.00;;;8.40;99.90;;;;;;5007640;28;20215;-70
2022/01/04 06:17:05;;;;;;;46.53;29.98;;;8.40;99.90;;;;;;4995696;28;20513;-71
2022/01/04 06:19:30;;;;;;;41.50;28.65;;;8.40;99.90;;;;;;5009255;28;20049;-71
2022/01/04 06:21:56;;;;;;;41.17;29.80;;;8.40;99.90;;;;;;5007508;28;20048;-71
2022/01/04 06:24:22;;;;;;;39.80;30.02;;;8.40;99.90;;;;;;5008733;28;20050;-71
2022/01/04 06:26:47;;;;;;;37.28;28.70;;;8.40;99.90;;;;;;4995758;28;20038;-70
2022/01/04 06:29:14;;;;;;;42.33;28.73;;;8.40;99.90;;;;;;5006770;28;20046;-71
2022/01/04 06:31:40;;;;;;;39.35;28.38;;;8.40;99.90;;;;;;5007083;28;20543;-71
2022/01/04 06:34:07;;;;;;;39.17;29.42;;;8.40;99.90;;;;;;4992463;28;20136;-71
2022/01/04 06:36:32;;;;;;;38.40;27.73;;;8.40;99.90;;;;;;5007511;28;20050;-71
2022/01/04 06:38:58;;;;;;;40.92;28.50;;;8.40;99.90;;;;;;5006552;28;20091;-70
2022/01/04 06:41:24;;;;;;;39.10;28.70;;;8.40;99.90;;;;;;5006594;28;20489;-71
2022/01/04 06:43:49;;;;;;;41.08;28.83;;;8.40;99.90;;;;;;5007580;28;20153;-71
2022/01/04 06:46:15;;;;;;;41.42;28.33;;;8.40;99.90;;;;;;5007714;28;20077;-71
2022/01/04 06:48:41;;;;;;;38.45;27.33;;;8.40;99.90;;;;;;5008344;28;20137;-71
2022/01/04 06:51:08;;;;;;;38.60;28.20;;;8.40;99.90;;;;;;4999382;28;20068;-71
2022/01/04 06:53:34;;;;;;;39.50;27.97;;;8.40;99.90;;;;;;5000054;28;20046;-71
2022/01/04 06:56:00;;;;;;;39.92;28.02;;;8.40;99.90;;;;;;5005558;28;20053;-71
2022/01/04 06:58:26;;;;;;;48.38;28.52;;;8.40;99.90;;;;;;5006266;28;20065;-75
2022/01/04 07:00:52;;;;;;;43.08;28.92;;;8.40;99.90;;;;;;5005120;28;20051;-71
2022/01/04 07:03:17;;;;;;;40.83;28.83;;;8.40;99.90;;;;;;4999943;28;20042;-71
2022/01/04 07:05:43;;;;;;;40.38;29.70;;;8.40;99.90;;;;;;5006236;28;20065;-71
2022/01/04 07:08:09;;;;;;;41.55;30.10;;;8.40;99.90;;;;;;5005342;28;20038;-71
2022/01/04 07:10:35;;;;;;;41.97;30.00;;;8.40;99.90;;;;;;5005968;28;20081;-71
2022/01/04 07:13:00;;;;;;;42.42;30.73;;;8.40;99.90;;;;;;4990712;28;20135;-71
2022/01/04 07:15:26;;;;;;;39.00;29.63;;;8.40;99.90;;;;;;5007197;28;20054;-71
2022/01/04 07:17:52;;;;;;;41.92;31.27;;;8.40;99.90;;;;;;5006586;28;20054;-71
2022/01/04 07:20:17;;;;;;;39.30;29.65;;;8.40;99.90;;;;;;5009351;28;20049;-70
2022/01/04 07:22:43;;;;;;;45.60;30.23;;;8.40;99.90;;;;;;5007340;28;20038;-71
2022/01/04 07:25:09;;;;;;;40.78;30.20;;;8.40;99.90;;;;;;5006571;28;20448;-71
2022/01/04 07:27:35;;;;;;;42.08;29.80;;;8.40;99.90;;;;;;5006622;28;20052;-71
2022/01/04 07:30:00;;;;;;;45.00;30.55;;;8.40;99.90;;;;;;5006566;28;20152;-70
2022/01/04 07:32:26;;;;;;;44.25;31.55;;;8.40;99.90;;;;;;5008398;28;20137;-71
2022/01/04 07:34:52;;;;;;;39.05;29.90;;;8.40;99.90;;;;;;5004979;28;20042;-70
2022/01/04 07:37:17;;;;;;;43.17;29.73;;;8.40;99.90;;;;;;5013605;28;20048;-70
2022/01/04 07:39:43;;;;;;;40.70;30.25;;;8.40;99.90;;;;;;5008786;28;20451;-71
2022/01/04 07:42:09;;;;;;;39.63;28.40;;;8.40;99.90;;;;;;5008065;28;20132;-71
2022/01/04 07:44:34;;;;;;;40.78;29.40;;;8.40;99.90;;;;;;5008232;28;20065;-70
2022/01/04 07:47:00;;;;;;;42.90;29.40;;;8.40;99.90;;;;;;5007563;28;20054;-72
2022/01/04 07:49:26;;;;;;;47.10;29.15;;;8.40;99.90;;;;;;5004731;28;20381;-71
2022/01/04 07:51:52;;;;;;;39.58;28.52;;;8.40;99.90;;;;;;5006643;28;20471;-71
2022/01/04 07:54:18;;;;;;;39.70;28.90;;;8.40;99.90;;;;;;5006499;28;20046;-71
2022/01/04 07:56:44;;;;;;;42.10;29.35;;;8.40;99.90;;;;;;5007262;28;20038;-70
2022/01/04 07:59:09;;;;;;;40.67;28.90;;;8.40;99.90;;;;;;5007124;28;20042;-71
2022/01/04 08:01:35;;;;;;;36.75;28.73;;;8.40;99.90;;;;;;5006021;28;20061;-72
2022/01/04 08:04:03;;;;;;;36.85;28.77;;;8.40;99.90;;;;;;5003293;28;20045;-71
2022/01/04 08:06:29;;;;;;;40.33;29.13;;;8.40;99.90;;;;;;4999416;28;20536;-70
2022/01/04 08:08:55;;;;;;;39.35;29.60;;;8.40;99.90;;;;;;5003955;28;20041;-72
2022/01/04 08:11:21;;;;;;;39.08;30.58;;;8.40;99.90;;;;;;5004618;28;20045;-70
2022/01/04 08:13:46;;;;;;;43.45;29.83;;;8.40;99.90;;;;;;5003834;28;20153;-70
2022/01/04 08:16:15;;;;;;;42.20;30.75;;;8.40;99.90;;;;;;5003910;28;20054;-71
2022/01/04 08:18:42;;;;;;;40.47;31.20;;;8.40;99.90;;;;;;5004541;28;20104;-70
2022/01/04 08:21:07;;;;;;;44.17;30.63;;;8.40;99.90;;;;;;5003518;28;20473;-71
2022/01/04 08:23:33;;;;;;;43.65;30.98;;;8.30;99.90;;;;;;5007106;28;20057;-72
2022/01/04 08:25:59;;;;;;;41.50;30.38;;;8.40;99.90;;;;;;5004461;28;20084;-73
2022/01/04 08:28:24;;;;;;;41.08;30.73;;;8.40;99.90;;;;;;5005925;28;20045;-73
2022/01/04 08:30:50;;;;;;;39.72;30.70;;;8.40;99.90;;;;;;5006291;28;20121;-73
2022/01/04 08:33:16;;;;;;;40.40;30.58;;;8.40;99.90;;;;;;5006930;28;20052;-71
2022/01/04 08:35:42;;;;;;;36.85;28.73;;;8.40;99.90;;;;;;5005539;28;20477;-71
2022/01/04 08:38:08;;;;;;;39.17;28.40;;;8.40;99.90;;;;;;5008017;28;20092;-71
2022/01/04 08:40:34;;;;;;;39.25;29.17;;;8.40;99.90;;;;;;5007305;28;20034;-70
2022/01/04 08:43:00;;;;;;;37.72;29.17;;;8.40;99.90;;;;;;5008404;28;20054;-70
2022/01/04 08:45:27;;;;;;;38.47;28.25;;;8.40;99.90;;;;;;5006563;28;20048;-70
2022/01/04 08:47:53;;;;;;;39.08;29.23;;;8.50;99.90;;;;;;5008352;28;20073;-70
2022/01/04 08:50:19;;;;;;;41.83;28.75;;;8.40;99.90;;;;;;5007162;28;20045;-70
2022/01/04 08:52:45;;;;;;;39.30;29.37;;;8.40;99.90;;;;;;5004547;28;20089;-71
2022/01/04 08:55:12;;;;;;;38.80;29.10;;;8.40;99.90;;;;;;5002708;28;20683;-72
2022/01/04 08:57:38;;;;;;;39.58;30.75;;;8.40;99.90;;;;;;5007002;28;20050;-71
2022/01/04 09:00:09;;;;;;;42.93;30.53;;;8.40;99.90;;;;;;4999316;28;20042;-71
2022/01/04 09:02:34;;;;;;;38.85;29.52;;;8.50;99.90;;;;;;5005872;28;20073;-71
2022/01/04 09:05:02;;;;;;;41.85;30.85;;;8.50;99.90;;;;;;5022666;28;20080;-75
2022/01/04 09:07:27;;;;;;;39.53;30.15;;;8.50;99.90;;;;;;5017563;28;20100;-75
2022/01/04 09:09:53;;;;;;;39.38;30.48;;;8.50;99.90;;;;;;5009817;28;20046;-73
2022/01/04 09:12:22;;;;;;;37.13;30.10;;;8.60;99.90;;;;;;5014920;28;20060;-72
2022/01/04 09:19:57;;;;;;;43.75;29.75;;;8.60;99.90;;;;;;5011431;28;20116;-69
2022/01/04 09:22:23;;;;;;;41.40;30.75;;;8.50;99.90;;;;;;5010483;28;20053;-69
2022/01/04 09:24:49;;;;;;;43.90;30.98;;;8.60;99.90;;;;;;5009673;28;20125;-69
2022/01/04 09:27:14;;;;;;;39.65;29.65;;;8.60;99.90;;;;;;5009460;28;20201;-68
2022/01/04 09:29:40;;;;;;;39.40;29.73;;;8.60;99.90;;;;;;5012784;28;20041;-70
2022/01/04 09:32:06;;;;;;;41.45;31.33;;;8.50;99.90;;;;;;5011908;28;20057;-68
2022/01/04 09:34:31;;;;;;;38.78;30.00;;;8.60;99.90;;;;;;5010300;28;20403;-67
2022/01/04 09:36:57;;;;;;;42.22;30.70;;;8.60;99.90;;;;;;5011906;28;20049;-68
2022/01/04 09:39:24;;;;;;;40.08;31.33;;;8.60;99.90;;;;;;5010134;28;20482;-68
2022/01/04 09:41:52;;;;;;;39.90;30.53;;;8.60;99.90;;;;;;5010041;28;20413;-68
2022/01/04 09:44:18;;;;;;;43.42;32.53;;;8.60;99.90;;;;;;5010592;28;20053;-68
2022/01/04 09:46:43;;;;;;;41.80;31.80;;;8.60;99.90;;;;;;5008803;28;20046;-68
2022/01/04 09:49:11;;;;;;;41.08;31.90;;;8.60;99.90;;;;;;5010693;28;20124;-69
2022/01/04 09:51:39;;;;;;;47.35;31.38;;;8.60;99.90;;;;;;5010864;28;20401;-68
2022/01/04 09:54:06;;;;;;;45.85;32.28;;;8.60;99.90;;;;;;5010654;28;20041;-71
2022/01/04 09:56:32;;;;;;;43.87;31.40;;;8.60;99.90;;;;;;5007630;28;20045;-70
2022/01/04 09:58:57;;;;;;;46.65;33.95;;;8.60;99.90;;;;;;5007133;28;20079;-70
2022/01/04 10:01:33;;;;;;;48.72;33.33;;;8.60;99.90;;;;;;5009225;28;20061;-71
2022/01/04 10:04:00;;;;;;;44.90;31.35;;;8.60;99.90;;;;;;5008621;28;20053;-70
2022/01/04 10:06:26;;;;;;;46.65;32.38;;;8.50;99.90;;;;;;5009902;28;20058;-71
2022/01/04 10:09:04;;;;;;;38.85;28.45;;;8.50;99.90;;;;;;5009276;28;20046;-71
2022/01/04 10:11:33;;;;;;;42.97;29.30;;;8.40;99.90;;;;;;5005070;28;20061;-70
2022/01/04 10:14:28;;;;;;;39.47;29.05;;;8.40;99.90;;;;;;5003832;28;20766;-68
2022/01/04 10:16:56;;;;;;;37.63;26.02;;;8.40;99.90;;;;;;5007429;28;20054;-69
2022/01/04 10:19:31;;;;;;;17.15;12.05;;;8.30;99.90;;;;;;5009097;28;20636;-69
2022/01/04 10:22:24;;;;;;;16.40;12.38;;;8.30;99.90;;;;;;5008944;28;20054;-69
2022/01/04 10:25:05;;;;;;;19.38;14.32;;;8.20;99.90;;;;;;5004897;28;20097;-70
2022/01/04 10:27:50;;;;;;;28.10;19.70;;;8.30;99.90;;;;;;5009743;28;20103;-69
2022/01/04 10:30:36;;;;;;;20.67;15.20;;;8.30;99.90;;;;;;5009177;28;20136;-69
2022/01/04 10:33:06;;;;;;;25.27;15.57;;;8.20;99.90;;;;;;5005746;28;20125;-69
2022/01/04 10:35:36;;;;;;;20.98;14.27;;;8.20;99.90;;;;;;5008471;28;20042;-70
2022/01/04 10:38:18;;;;;;;20.40;14.90;;;8.20;99.90;;;;;;5009390;28;20052;-68
2022/01/04 10:40:49;;;;;;;22.75;16.02;;;8.20;99.90;;;;;;5009515;28;20401;-69
2022/01/04 10:43:23;;;;;;;19.25;13.73;;;8.10;99.90;;;;;;5010905;28;20072;-69
2022/01/04 10:45:50;;;;;;;16.48;10.40;;;8.10;99.90;;;;;;5008757;28;20077;-69
2022/01/04 10:48:29;;;;;;;14.35;9.35;;;8.10;99.90;;;;;;5008984;28;20030;-68
2022/01/04 10:50:58;;;;;;;16.45;10.02;;;8.10;99.90;;;;;;5008379;28;20069;-69
2022/01/04 10:53:31;;;;;;;10.85;5.97;;;8.10;99.90;;;;;;5010473;28;20234;-69
2022/01/04 10:56:03;;;;;;;10.13;4.60;;;8.10;99.90;;;;;;5008721;28;20058;-69
2022/01/04 10:58:33;;;;;;;7.28;3.15;;;8.10;99.90;;;;;;5009247;28;20088;-69
2022/01/04 11:01:03;;;;;;;8.52;3.38;;;8.00;99.90;;;;;;5007650;28;20056;-68
2022/01/04 11:03:31;;;;;;;8.02;2.90;;;8.00;99.90;;;;;;5008706;28;20397;-69
2022/01/04 11:06:06;;;;;;;6.40;2.90;;;7.90;99.90;;;;;;5008331;28;20038;-69
2022/01/04 11:08:32;;;;;;;7.57;2.78;;;7.90;99.90;;;;;;5010325;28;20045;-70
2022/01/04 11:10:59;;;;;;;9.55;2.80;;;7.90;99.90;;;;;;5009029;28;20039;-69
2022/01/04 11:13:25;;;;;;;6.97;2.88;;;7.90;99.90;;;;;;5008870;28;20049;-69
2022/01/04 11:15:51;;;;;;;7.45;3.60;;;7.90;99.90;;;;;;5008069;28;20054;-71
2022/01/04 11:18:17;;;;;;;7.18;3.47;;;7.90;99.90;;;;;;5009803;28;20060;-69
2022/01/04 11:20:46;;;;;;;8.88;3.47;;;7.90;99.90;;;;;;5006672;28;20385;-70
2022/01/04 11:23:13;;;;;;;8.88;3.25;;;7.90;99.90;;;;;;5007772;28;20046;-70
2022/01/04 11:25:43;;;;;;;7.40;3.40;;;7.90;99.90;;;;;;5008408;28;20037;-71
2022/01/04 11:28:12;;;;;;;7.18;3.47;;;7.80;99.90;;;;;;5005868;28;20053;-72
2022/01/04 11:30:56;;;;;;;8.38;3.53;;;7.80;99.90;;;;;;5008423;28;20392;-71
2022/01/04 11:33:42;;;;;;;5.53;3.17;;;7.80;99.90;;;;;;5006720;28;20444;-71
2022/01/04 11:36:08;;;;;;;10.30;4.37;;;7.70;99.90;;;;;;5005230;28;20058;-71
2022/01/04 11:38:36;;;;;;;9.27;4.20;;;7.70;99.90;;;;;;5024109;28;20056;-72
2022/01/04 11:41:03;;;;;;;6.15;3.50;;;7.70;99.90;;;;;;5006486;28;20058;-70
2022/01/04 11:43:33;;;;;;;6.53;3.05;;;7.70;99.90;;;;;;5007378;28;20504;-72
2022/01/04 11:45:59;;;;;;;8.13;2.10;;;7.70;99.90;;;;;;5008898;28;20045;-72
2022/01/04 11:48:35;;;;;;;5.85;2.00;;;7.70;99.90;;;;;;5026523;28;20053;-69
2022/01/04 11:51:07;;;;;;;4.50;1.70;;;7.70;99.90;;;;;;5006557;28;20104;-70
2022/01/04 11:53:34;;;;;;;5.45;1.95;;;7.70;99.90;;;;;;5004743;28;20042;-69
2022/01/04 11:56:04;;;;;;;5.32;1.52;;;7.70;99.90;;;;;;5006411;28;20057;-70
2022/01/04 11:58:50;;;;;;;4.47;1.80;;;7.60;99.90;;;;;;5008881;28;20046;-70
2022/01/04 12:01:17;;;;;;;7.88;2.00;;;7.70;99.90;;;;;;5006868;28;20052;-70
2022/01/04 12:03:47;;;;;;;7.90;1.90;;;7.70;99.90;;;;;;5006101;28;20054;-70
2022/01/04 12:06:15;;;;;;;5.88;1.73;;;7.70;99.90;;;;;;5007078;28;20525;-71
2022/01/04 12:08:46;;;;;;;;;;;7.60;99.90;;;;;;5008331;28;20046;-71
2022/01/04 12:11:24;;;;;;;4.90;2.08;;;7.60;99.90;;;;;;5007162;28;20300;-70
2022/01/04 12:13:51;;;;;;;8.93;2.15;;;7.60;99.90;;;;;;4993999;28;20050;-70
2022/01/04 12:16:32;;;;;;;5.90;1.90;;;7.50;99.90;;;;;;5008716;28;20078;-70
2022/01/04 12:18:59;;;;;;;6.38;1.73;;;7.50;99.90;;;;;;5009167;28;20637;-71
2022/01/04 12:21:27;;;;;;;5.85;1.70;;;7.50;99.90;;;;;;5006436;28;20046;-70
2022/01/04 12:23:54;;;;;;;3.58;1.48;;;7.40;99.90;;;;;;5007785;28;20126;-70
2022/01/04 12:26:21;;;;;;;4.35;1.48;;;7.30;99.90;;;;;;5008512;28;20077;-70
2022/01/04 12:28:57;;;;;;;5.45;1.00;;;7.10;99.90;;;;;;5007741;28;20145;-70
2022/01/04 12:31:27;;;;;;;3.65;1.05;;;7.00;99.90;;;;;;5004817;28;20050;-71
2022/01/04 12:34:04;;;;;;;7.05;1.10;;;6.90;99.90;;;;;;5007787;28;20052;-70
2022/01/04 12:36:41;;;;;;;4.07;0.95;;;6.90;99.90;;;;;;5006398;28;21758;-70
2022/01/04 12:39:14;;;;;;;2.58;0.80;;;6.80;99.90;;;;;;5006778;28;20058;-71
2022/01/04 12:41:43;;;;;;;3.70;1.33;;;6.80;99.90;;;;;;5009296;28;20103;-71
2022/01/04 12:44:10;;;;;;;2.10;0.80;;;6.80;99.90;;;;;;5009948;28;20038;-70
2022/01/04 12:46:46;;;;;;;6.65;1.05;;;6.70;99.90;;;;;;5011190;28;20218;-70
2022/01/04 12:49:14;;;;;;;3.30;0.98;;;6.80;99.90;;;;;;5011846;28;20045;-70
2022/01/04 12:51:44;;;;;;;;;;;6.80;99.90;;;;;;5008941;28;20053;-71
2022/01/04 12:54:15;;;;;;;4.13;1.40;;;6.70;99.90;;;;;;5010834;28;20220;-70